Airfield :
LOGIN :

Register | Disclaimer

   EN    FR    IT 

 










Legend :    VFR   Marginal VFR   IFR   Intensive IFR   Very Intensive IFR
Visi :
Ceiling :
>= 8 km
>= 3000ft
5 to 8 km
1000 to 3000 ft
1500m to 5 km
500 to 1000 ft
800 to 1500m
200 to 500 ft
< 800m
< 200 ft
Symbols :   Thunderstorms  Fog  Heavy snow  Heavy precipitations  Wind > 20 kt
SIGMETs :     Misc.  Thunderstorms  Icing  Turbulence  Mountain Waves  Volcanic Ashes






- Airport Elevation : 82 ft
- IATA code : QIE


LFMI - Istres

CURRENT METAR :
  • 011330Z AUTO 36010KT 9999 SCT039 BKN047 BKN066 10/05 Q1016 NOSIG

EXPIRED METARs :
  • 011300Z AUTO 36009KT 9999 SCT040/// BKN048/// BKN054/// ///TCU 10/05 Q1017 BECMG NSC
  • 011230Z AUTO 36008KT 330V030 9999 FEW031 BKN039 OVC058 10/05 Q1017 NOSIG
  • 011200Z AUTO 01008KT 9999 FEW036/// SCT045/// BKN060/// //////TCU 09/06 Q1017 BECMG NSC
  • 011130Z AUTO 02009KT 9999 SCT045 BKN058 OVC086 09/06 Q1017 NOSIG
  • 011100Z AUTO 02008KT 9999 FEW038 BKN044 BKN056 09/06 Q1017 TEMPO SHRA BKN040TCU

TAF TAF LFMI
Valid from the 01 at 09:00 until the 02 at 09:00 UTC


010800Z 0109/0209 02010KT CAVOK TX10/0112Z TN03/0204Z
TEMPO 0109/0112 SHRA BKN040TCU



MET'MAP, your aeronautical weather chart ! - Copyright ORBIFLY December 2007 - Disclaimer

ORBIFLY MET'MAP TEAM :

Programming & Development : Alexandra Zaïnal
Original concept : Baudouin d'Aumeries
Technical & hardware support : Manuel Goepfert
Assistance : Marc-Olivier Méhu




SOURCES & CREDITS :

   NOAA